Time;durP1;ratioP1;P1;durP2;ratioP2;P2;SDS_P1;SDS_P2;PMS_P1;PMS_P2;Temp;Humidity;BMP_temperature;BMP_pressure;BME280_temperature;BME280_humidity;BME280_pressure;Samples;Min_cycle;Max_cycle;Signal;HPM_P1;HPM_P2
2022/01/30 00:00:00;;;;;;;17.17;2.63;;;6.30;99.90;;;;;;5057594;28;20271;-60
2022/01/30 00:02:27;;;;;;;13.40;2.60;;;6.30;99.90;;;;;;5055544;28;20236;-60
2022/01/30 00:04:54;;;;;;;13.90;3.07;;;6.40;99.90;;;;;;5055734;28;20571;-59
2022/01/30 00:07:21;;;;;;;11.90;3.50;;;6.40;99.90;;;;;;5054437;28;20201;-60
2022/01/30 00:09:49;;;;;;;13.87;2.90;;;6.30;99.90;;;;;;5055652;28;20582;-59
2022/01/30 00:12:18;;;;;;;12.70;2.87;;;6.30;1.00;;;;;;5058200;28;20289;-60
2022/01/30 00:14:52;;;;;;;18.80;3.57;;;6.30;1.00;;;;;;5056246;28;20274;-60
2022/01/30 00:17:24;;;;;;;10.13;3.07;;;6.40;1.00;;;;;;5053563;28;20231;-60
2022/01/30 00:19:57;;;;;;;23.83;4.70;;;6.40;1.00;;;;;;5054407;28;20578;-61
2022/01/30 00:22:37;;;;;;;20.43;3.40;;;6.40;99.90;;;;;;5054161;28;20228;-60
2022/01/30 00:25:10;;;;;;;18.57;3.00;;;6.40;99.90;;;;;;5053994;28;20654;-60
2022/01/30 00:27:47;;;;;;;12.53;3.23;;;6.30;99.90;;;;;;5053725;28;20285;-60
2022/01/30 00:30:17;;;;;;;23.30;4.30;;;6.30;99.90;;;;;;5053465;28;20662;-60
2022/01/30 00:32:45;;;;;;;13.13;3.47;;;6.20;99.90;;;;;;5053573;28;20803;-60
2022/01/30 00:35:12;;;;;;;14.30;3.10;;;6.30;99.90;;;;;;5053232;28;20300;-60
2022/01/30 00:37:41;;;;;;;19.40;3.17;;;6.20;99.90;;;;;;5053507;28;20236;-59
2022/01/30 00:40:09;;;;;;;12.63;3.00;;;6.10;99.90;;;;;;5053495;28;20202;-60
2022/01/30 00:42:36;;;;;;;18.90;3.80;;;6.10;99.90;;;;;;5053621;28;20271;-60
2022/01/30 00:45:04;;;;;;;15.83;3.10;;;6.10;99.90;;;;;;5053165;28;20259;-60
2022/01/30 00:47:32;;;;;;;15.50;3.03;;;6.00;99.90;;;;;;5053032;28;20201;-60
2022/01/30 00:49:59;;;;;;;12.13;2.73;;;6.00;99.90;;;;;;5053077;28;20210;-60
2022/01/30 00:52:25;;;;;;;14.93;2.73;;;6.00;99.90;;;;;;5053545;28;20237;-59
2022/01/30 00:54:52;;;;;;;13.23;2.87;;;6.00;99.90;;;;;;5053266;28;20634;-60
2022/01/30 00:57:19;;;;;;;11.17;2.47;;;5.90;99.90;;;;;;5053060;28;20603;-60
2022/01/30 00:59:45;;;;;;;18.27;3.60;;;5.80;99.90;;;;;;5053196;28;20213;-60
2022/01/30 01:02:12;;;;;;;20.50;3.33;;;5.80;99.90;;;;;;5052721;28;20612;-60
2022/01/30 01:04:40;;;;;;;11.10;2.90;;;5.70;99.90;;;;;;5053077;28;20213;-60
2022/01/30 01:07:12;;;;;;;14.90;2.90;;;5.70;99.90;;;;;;5052859;28;20288;-60
2022/01/30 01:09:40;;;;;;;10.10;3.10;;;5.70;99.90;;;;;;5053084;28;20299;-61
2022/01/30 01:12:33;;;;;;;22.60;3.37;;;5.80;99.90;;;;;;5052953;28;20324;-61
2022/01/30 01:23:29;;;;;;;10.60;2.70;;;5.70;99.90;;;;;;5052577;28;20243;-60
2022/01/30 01:25:57;;;;;;;20.67;3.73;;;5.80;99.90;;;;;;5052952;28;20311;-59
2022/01/30 01:28:25;;;;;;;17.73;3.23;;;5.80;99.90;;;;;;5052847;28;20201;-61
2022/01/30 01:30:51;;;;;;;14.13;2.80;;;5.90;99.90;;;;;;5052134;28;20221;-60
2022/01/30 01:33:19;;;;;;;16.53;2.70;;;5.90;99.90;;;;;;5052698;28;20233;-59
2022/01/30 01:35:47;;;;;;;13.00;3.37;;;5.90;99.90;;;;;;5052926;28;20220;-61
2022/01/30 01:38:15;;;;;;;17.00;2.87;;;5.90;99.90;;;;;;5052659;28;20225;-60
2022/01/30 01:40:50;;;;;;;16.90;2.70;;;6.00;99.90;;;;;;5052453;28;20205;-60
2022/01/30 01:43:17;;;;;;;13.43;2.87;;;6.00;99.90;;;;;;5052300;28;20207;-60
2022/01/30 01:45:46;;;;;;;20.87;3.87;;;6.00;99.90;;;;;;5052280;28;20205;-60
2022/01/30 01:48:14;;;;;;;11.67;2.87;;;6.00;99.90;;;;;;5052177;28;20292;-60
2022/01/30 01:50:45;;;;;;;15.37;3.40;;;6.00;99.90;;;;;;5052355;28;20252;-59
2022/01/30 01:53:16;;;;;;;12.77;3.17;;;6.00;99.90;;;;;;5051750;28;20221;-60
2022/01/30 01:55:44;;;;;;;17.67;3.30;;;5.90;99.90;;;;;;5051903;28;20217;-60
2022/01/30 01:58:12;;;;;;;16.00;3.13;;;5.90;99.90;;;;;;5051763;28;20314;-60
2022/01/30 02:00:39;;;;;;;16.70;3.53;;;5.90;99.90;;;;;;5051921;28;20217;-59
2022/01/30 02:03:06;;;;;;;17.77;3.77;;;5.90;99.90;;;;;;5051871;28;20221;-60
2022/01/30 02:05:35;;;;;;;19.43;3.77;;;5.80;99.90;;;;;;5051734;28;20210;-59
2022/01/30 02:08:25;;;;;;;13.67;3.00;;;5.60;99.90;;;;;;5051994;28;20212;-59
2022/01/30 02:10:58;;;;;;;15.40;3.17;;;5.60;99.90;;;;;;5053050;28;20209;-60
2022/01/30 02:24:41;;;;;;;18.70;3.93;;;5.50;1.00;;;;;;5052190;28;20215;-59
2022/01/30 02:27:08;;;;;;;16.20;3.57;;;5.50;1.00;;;;;;5051510;28;20237;-60
2022/01/30 02:29:34;;;;;;;23.73;4.00;;;5.50;1.00;;;;;;5051432;28;20213;-58
2022/01/30 02:32:02;;;;;;;17.17;3.63;;;5.50;1.00;;;;;;5051147;28;20230;-60
2022/01/30 02:34:30;;;;;;;20.37;3.90;;;5.50;1.00;;;;;;5051492;28;20244;-60
2022/01/30 02:36:57;;;;;;;14.40;3.37;;;5.50;1.00;;;;;;5051143;28;20213;-59
2022/01/30 02:39:25;;;;;;;16.37;4.10;;;5.50;1.00;;;;;;5051527;28;20214;-59
2022/01/30 02:41:53;;;;;;;20.13;3.80;;;5.50;1.00;;;;;;5055905;28;20233;-60
2022/01/30 02:44:24;;;;;;;18.23;3.40;;;5.40;1.00;;;;;;5058093;28;20205;-60
2022/01/30 02:46:54;;;;;;;22.57;4.10;;;5.40;1.00;;;;;;5057913;28;20212;-60
2022/01/30 02:49:30;;;;;;;14.53;2.80;;;5.40;1.00;;;;;;5058016;28;20205;-60
2022/01/30 02:51:59;;;;;;;24.47;4.03;;;5.30;1.00;;;;;;5058060;28;20657;-59
2022/01/30 02:54:26;;;;;;;16.17;3.57;;;5.30;1.00;;;;;;5058016;28;20216;-60
2022/01/30 02:56:54;;;;;;;19.23;3.17;;;5.20;1.00;;;;;;5057495;28;20284;-60
2022/01/30 02:59:21;;;;;;;20.70;3.30;;;5.20;1.00;;;;;;5058015;28;20576;-60
2022/01/30 03:01:48;;;;;;;22.47;3.77;;;5.20;1.00;;;;;;5058073;28;20233;-59
2022/01/30 03:04:15;;;;;;;19.20;3.77;;;5.20;1.00;;;;;;5058007;28;20208;-59
2022/01/30 03:06:42;;;;;;;28.10;3.57;;;5.10;1.00;;;;;;5057909;28;20208;-60
2022/01/30 03:09:10;;;;;;;19.07;2.80;;;5.00;1.00;;;;;;5057592;28;20565;-60
2022/01/30 03:11:37;;;;;;;15.70;3.40;;;4.90;1.00;;;;;;5057957;28;20224;-59
2022/01/30 03:14:06;;;;;;;14.67;2.77;;;5.00;1.00;;;;;;5057787;28;20678;-58
2022/01/30 03:16:33;;;;;;;16.90;3.03;;;5.00;1.00;;;;;;5058244;28;20212;-60
2022/01/30 03:19:01;;;;;;;25.80;4.00;;;5.10;1.00;;;;;;5058148;28;20231;-60
2022/01/30 03:21:28;;;;;;;20.90;4.37;;;5.10;1.00;;;;;;5058180;28;20240;-59
2022/01/30 03:23:54;;;;;;;16.10;3.77;;;5.10;1.00;;;;;;5057455;28;20216;-59
2022/01/30 03:26:21;;;;;;;16.53;3.20;;;5.00;1.00;;;;;;5057525;28;20224;-60
2022/01/30 03:28:50;;;;;;;13.00;3.00;;;5.00;1.00;;;;;;5058369;28;20205;-60
2022/01/30 03:31:20;;;;;;;17.57;3.97;;;5.00;1.00;;;;;;5058756;28;20224;-60
2022/01/30 03:33:47;;;;;;;13.00;3.00;;;5.00;1.00;;;;;;5057952;28;20295;-60
2022/01/30 03:36:13;;;;;;;16.93;3.90;;;5.10;1.00;;;;;;5057589;28;20335;-59
2022/01/30 03:38:40;;;;;;;19.20;3.83;;;5.10;1.00;;;;;;5057734;28;20575;-60
2022/01/30 03:41:07;;;;;;;19.50;3.67;;;5.10;1.00;;;;;;5057289;28;20773;-60
2022/01/30 03:43:33;;;;;;;17.80;3.33;;;5.20;1.00;;;;;;5057542;28;20209;-60
2022/01/30 03:46:00;;;;;;;20.93;3.30;;;5.10;1.00;;;;;;5057411;28;20663;-60
2022/01/30 03:48:28;;;;;;;16.20;3.77;;;5.20;1.00;;;;;;5057640;28;20262;-59
2022/01/30 03:50:55;;;;;;;15.83;3.27;;;5.20;1.00;;;;;;5057072;28;20748;-60
2022/01/30 03:53:22;;;;;;;22.87;4.60;;;5.20;99.90;;;;;;5054395;28;20637;-60
2022/01/30 03:55:48;;;;;;;16.03;3.43;;;5.20;99.90;;;;;;5054308;28;20209;-60
2022/01/30 03:58:15;;;;;;;22.23;3.67;;;5.20;99.90;;;;;;5054678;28;20224;-60
2022/01/30 04:00:42;;;;;;;21.23;3.23;;;5.30;99.90;;;;;;5054548;28;20308;-60
2022/01/30 04:03:09;;;;;;;22.00;3.10;;;5.20;99.90;;;;;;5054348;28;20636;-60
2022/01/30 04:05:37;;;;;;;16.60;3.60;;;5.20;99.90;;;;;;5054403;28;20680;-60
2022/01/30 04:08:04;;;;;;;19.60;3.27;;;5.20;99.90;;;;;;5054260;28;20208;-60
2022/01/30 04:10:31;;;;;;;14.97;3.53;;;5.10;99.90;;;;;;5054288;28;20290;-60
2022/01/30 04:12:59;;;;;;;20.97;3.60;;;5.10;99.90;;;;;;5054145;28;20230;-60
2022/01/30 04:15:26;;;;;;;15.40;3.67;;;5.00;99.90;;;;;;5054130;28;20201;-59
2022/01/30 04:17:53;;;;;;;15.13;3.00;;;5.00;99.90;;;;;;5053944;28;20220;-60
2022/01/30 04:20:20;;;;;;;21.53;3.30;;;4.80;99.90;;;;;;5054138;28;20213;-61
2022/01/30 04:22:48;;;;;;;14.97;2.93;;;4.80;99.90;;;;;;5053949;28;20236;-59
2022/01/30 04:25:15;;;;;;;18.03;2.70;;;4.80;99.90;;;;;;5053963;28;20209;-60
2022/01/30 04:27:42;;;;;;;19.40;3.13;;;4.80;99.90;;;;;;5053524;28;20220;-60
2022/01/30 04:30:11;;;;;;;14.10;2.83;;;4.90;99.90;;;;;;5053817;28;20206;-59
2022/01/30 04:32:41;;;;;;;15.93;2.70;;;4.90;99.90;;;;;;5053516;28;20225;-60
2022/01/30 04:35:12;;;;;;;11.80;2.30;;;5.00;99.90;;;;;;5054075;28;20245;-58
2022/01/30 04:37:52;;;;;;;10.27;2.30;;;5.00;99.90;;;;;;5053794;28;20582;-60
2022/01/30 04:40:46;;;;;;;14.53;2.80;;;5.00;99.90;;;;;;5053636;28;20217;-60
2022/01/30 04:57:01;;;;;;;13.87;2.37;;;5.00;99.90;;;;;;5050994;28;20197;-59
2022/01/30 04:59:49;;;;;;;15.67;2.70;;;5.10;99.90;;;;;;5054009;28;20323;-60
2022/01/30 05:02:37;;;;;;;13.87;3.07;;;5.10;99.90;;;;;;5055143;28;20710;-59
2022/01/30 05:05:23;;;;;;;19.83;3.17;;;5.10;99.90;;;;;;5052312;28;20216;-60
2022/01/30 05:07:50;;;;;;;16.07;2.63;;;5.10;99.90;;;;;;5053366;28;20208;-60
2022/01/30 05:10:17;;;;;;;17.67;2.77;;;5.10;99.90;;;;;;5053211;28;20214;-58
2022/01/30 05:12:50;;;;;;;11.50;3.07;;;5.10;99.90;;;;;;5053255;28;20235;-59
2022/01/30 05:15:18;;;;;;;21.67;3.27;;;5.00;99.90;;;;;;5053082;28;20212;-60
2022/01/30 05:17:46;;;;;;;20.63;3.23;;;5.00;99.90;;;;;;5052785;28;20307;-60
2022/01/30 05:20:14;;;;;;;21.13;3.57;;;5.10;99.90;;;;;;5052865;28;20217;-59
2022/01/30 05:22:41;;;;;;;14.23;3.23;;;5.00;99.90;;;;;;5052647;28;20240;-60
2022/01/30 05:25:09;;;;;;;14.77;3.30;;;5.10;99.90;;;;;;5052858;28;20274;-60
2022/01/30 05:27:37;;;;;;;14.87;2.87;;;5.10;99.90;;;;;;5052336;28;20221;-60
2022/01/30 05:30:06;;;;;;;15.60;3.00;;;5.00;99.90;;;;;;5052684;28;20251;-60
2022/01/30 05:32:34;;;;;;;11.70;2.47;;;5.10;99.90;;;;;;5053453;28;20583;-59
2022/01/30 05:35:01;;;;;;;11.47;2.43;;;5.10;99.90;;;;;;5054004;28;20210;-59
2022/01/30 05:37:28;;;;;;;23.47;2.80;;;5.10;99.90;;;;;;5052883;28;20216;-60
2022/01/30 05:39:55;;;;;;;20.17;3.37;;;5.00;99.90;;;;;;5052450;28;20234;-60
2022/01/30 05:42:25;;;;;;;17.23;3.20;;;5.00;99.90;;;;;;5052299;28;20298;-60
2022/01/30 05:44:58;;;;;;;9.97;2.37;;;5.00;99.90;;;;;;5052520;28;20205;-60
2022/01/30 05:47:37;;;;;;;16.57;2.77;;;5.00;99.90;;;;;;5052322;28;20233;-60
2022/01/30 05:50:05;;;;;;;17.90;2.93;;;5.00;99.90;;;;;;5052663;28;20197;-60
2022/01/30 05:52:32;;;;;;;15.07;2.53;;;5.00;99.90;;;;;;5052011;28;20282;-59
2022/01/30 05:54:58;;;;;;;15.77;2.93;;;5.00;99.90;;;;;;5052154;28;20213;-60
2022/01/30 05:57:26;;;;;;;10.10;2.20;;;5.10;99.90;;;;;;5051675;28;20208;-60
2022/01/30 05:59:52;;;;;;;13.73;2.90;;;5.10;99.90;;;;;;5052026;28;20240;-60
2022/01/30 06:02:19;;;;;;;13.60;2.10;;;5.10;99.90;;;;;;5051776;28;20236;-60
2022/01/30 06:04:47;;;;;;;7.00;2.23;;;5.10;99.90;;;;;;5052030;28;20251;-59
2022/01/30 06:07:14;;;;;;;14.90;3.20;;;5.10;99.90;;;;;;5051988;28;20209;-60
2022/01/30 06:09:41;;;;;;;12.77;2.90;;;5.10;99.90;;;;;;5051703;28;20209;-60
2022/01/30 06:12:09;;;;;;;13.13;3.23;;;5.10;99.90;;;;;;5052141;28;20233;-60
2022/01/30 06:14:35;;;;;;;15.47;3.30;;;5.10;99.90;;;;;;5052027;28;20289;-60
2022/01/30 06:17:02;;;;;;;13.97;2.70;;;5.10;99.90;;;;;;5051372;28;20311;-60
2022/01/30 06:19:29;;;;;;;14.33;3.07;;;5.10;99.90;;;;;;5051523;28;20221;-60
2022/01/30 06:21:57;;;;;;;13.27;3.13;;;5.10;99.90;;;;;;5051588;28;20236;-60
2022/01/30 06:24:23;;;;;;;15.50;2.90;;;5.10;99.90;;;;;;5051576;28;20212;-60
2022/01/30 06:26:51;;;;;;;18.17;3.50;;;5.00;99.90;;;;;;5051406;28;20213;-59
2022/01/30 06:29:17;;;;;;;19.17;3.83;;;5.00;99.90;;;;;;5051481;28;20291;-60
2022/01/30 06:31:44;;;;;;;11.97;2.90;;;5.00;99.90;;;;;;5051572;28;20283;-60
2022/01/30 06:34:10;;;;;;;9.90;1.40;;;5.00;99.90;;;;;;5051932;28;20211;-60
2022/01/30 06:36:37;;;;;;;14.23;2.93;;;4.80;99.90;;;;;;5051413;28;20205;-60
2022/01/30 06:39:05;;;;;;;19.87;3.87;;;4.80;99.90;;;;;;5051334;28;20220;-59
2022/01/30 06:41:32;;;;;;;22.70;2.70;;;4.80;99.90;;;;;;5051153;28;20229;-60
2022/01/30 06:43:59;;;;;;;13.70;2.20;;;4.80;99.90;;;;;;5051457;28;20265;-60
2022/01/30 06:46:26;;;;;;;23.40;4.50;;;4.70;99.90;;;;;;5051964;28;20259;-59
2022/01/30 06:48:52;;;;;;;16.23;3.87;;;4.70;99.90;;;;;;5051870;28;20210;-59
2022/01/30 06:51:19;;;;;;;12.83;3.07;;;4.70;99.90;;;;;;5051151;28;20285;-60
2022/01/30 06:53:46;;;;;;;20.30;3.33;;;4.60;99.90;;;;;;5051301;28;20682;-60
2022/01/30 06:56:14;;;;;;;11.80;2.50;;;4.60;99.90;;;;;;5051335;28;20208;-60
2022/01/30 06:58:40;;;;;;;12.03;2.40;;;4.50;99.90;;;;;;5051301;28;20228;-60
2022/01/30 07:01:07;;;;;;;14.20;3.23;;;4.50;99.90;;;;;;5051105;28;20332;-61
2022/01/30 07:03:34;;;;;;;10.97;2.33;;;4.30;99.90;;;;;;5051344;28;20203;-61
2022/01/30 07:06:00;;;;;;;15.60;3.47;;;4.30;99.90;;;;;;5051224;28;20258;-61
2022/01/30 07:08:27;;;;;;;19.37;3.13;;;4.30;99.90;;;;;;5051174;28;20209;-61
2022/01/30 07:10:54;;;;;;;22.97;3.53;;;4.40;99.90;;;;;;5051130;28;20212;-60
2022/01/30 07:13:22;;;;;;;12.80;2.17;;;4.20;99.90;;;;;;5051299;28;20210;-60
2022/01/30 07:15:48;;;;;;;14.83;2.73;;;4.20;99.90;;;;;;5051358;28;20215;-60
2022/01/30 07:18:15;;;;;;;16.33;3.13;;;4.30;99.90;;;;;;5050928;28;20212;-58
2022/01/30 07:20:42;;;;;;;12.30;2.60;;;4.30;99.90;;;;;;5050859;28;20769;-61
2022/01/30 07:23:08;;;;;;;13.10;2.17;;;4.30;99.90;;;;;;5050858;28;20598;-62
2022/01/30 07:25:35;;;;;;;19.70;3.53;;;4.30;99.90;;;;;;5051089;28;20231;-60
2022/01/30 07:28:02;;;;;;;16.83;3.23;;;4.40;99.90;;;;;;5052367;28;20219;-61
2022/01/30 07:30:30;;;;;;;17.53;2.97;;;4.40;99.90;;;;;;5055048;28;20210;-60
2022/01/30 07:32:56;;;;;;;13.47;2.70;;;4.40;99.90;;;;;;5054637;28;20285;-60
2022/01/30 07:35:23;;;;;;;15.47;3.27;;;4.30;99.90;;;;;;5054860;28;20217;-60
2022/01/30 07:37:50;;;;;;;16.73;3.33;;;4.30;99.90;;;;;;5054764;28;20213;-60
2022/01/30 07:40:17;;;;;;;16.30;3.43;;;4.30;99.90;;;;;;5054771;28;20226;-60
2022/01/30 07:42:43;;;;;;;18.33;3.23;;;4.40;99.90;;;;;;5054394;28;20231;-60
2022/01/30 07:45:11;;;;;;;16.87;3.20;;;4.40;99.90;;;;;;5054702;28;20207;-60
2022/01/30 07:47:39;;;;;;;18.43;3.50;;;4.40;99.90;;;;;;5054643;28;20571;-61
2022/01/30 07:50:06;;;;;;;15.00;2.87;;;4.40;99.90;;;;;;5054471;28;20208;-60
2022/01/30 07:52:33;;;;;;;21.53;3.00;;;4.30;99.90;;;;;;5053932;28;20240;-60
2022/01/30 07:54:59;;;;;;;17.07;3.00;;;4.30;99.90;;;;;;5054278;28;20210;-61
2022/01/30 07:57:26;;;;;;;18.77;2.67;;;4.30;99.90;;;;;;5054404;28;20205;-61
2022/01/30 07:59:53;;;;;;;11.47;2.80;;;4.40;99.90;;;;;;5054322;28;20236;-61
2022/01/30 08:02:19;;;;;;;16.43;3.13;;;4.40;99.90;;;;;;5054400;28;20242;-60
2022/01/30 08:04:47;;;;;;;12.20;2.63;;;4.40;99.90;;;;;;5053987;28;20265;-61
2022/01/30 08:07:14;;;;;;;15.90;2.83;;;4.40;99.90;;;;;;5053960;28;20209;-61
2022/01/30 08:09:41;;;;;;;9.73;2.23;;;4.40;99.90;;;;;;5054354;28;20211;-60
2022/01/30 08:12:09;;;;;;;16.93;3.00;;;4.40;99.90;;;;;;5053868;28;20717;-60
2022/01/30 08:14:35;;;;;;;15.87;3.20;;;4.30;99.90;;;;;;5054285;28;20269;-61
2022/01/30 08:17:02;;;;;;;14.80;2.87;;;4.40;99.90;;;;;;5053688;28;20218;-59
2022/01/30 08:19:29;;;;;;;14.57;3.13;;;4.40;99.90;;;;;;5053874;28;20220;-64
2022/01/30 08:22:00;;;;;;;14.20;2.90;;;4.50;99.90;;;;;;5049849;28;20230;-60
2022/01/30 08:24:26;;;;;;;19.53;2.97;;;4.50;99.90;;;;;;5053786;28;20208;-62
2022/01/30 08:26:53;;;;;;;12.03;2.23;;;4.60;99.90;;;;;;5053263;28;20575;-61
2022/01/30 08:29:20;;;;;;;18.33;3.13;;;4.50;99.90;;;;;;5053658;28;20205;-62
2022/01/30 08:31:47;;;;;;;11.67;2.80;;;4.50;99.90;;;;;;5053238;28;20235;-61
2022/01/30 08:34:13;;;;;;;12.57;3.27;;;4.50;99.90;;;;;;5053418;28;20214;-62
2022/01/30 08:36:40;;;;;;;8.93;2.43;;;4.60;99.90;;;;;;5053283;28;20890;-62
2022/01/30 08:39:08;;;;;;;15.57;2.80;;;4.70;99.90;;;;;;5053432;28;20686;-61
2022/01/30 08:41:35;;;;;;;14.13;2.83;;;4.70;99.90;;;;;;5053608;28;20240;-60
2022/01/30 08:44:02;;;;;;;16.27;3.20;;;4.70;99.90;;;;;;5053376;28;20211;-62
2022/01/30 08:46:29;;;;;;;10.37;2.53;;;4.80;99.90;;;;;;5053277;28;20619;-62
2022/01/30 08:48:55;;;;;;;18.97;3.30;;;5.00;99.90;;;;;;5053351;28;20243;-61
2022/01/30 08:51:22;;;;;;;20.70;3.60;;;5.10;99.90;;;;;;5053301;28;20233;-61
2022/01/30 08:53:49;;;;;;;12.33;2.80;;;5.20;99.90;;;;;;5053184;28;20632;-59
2022/01/30 08:56:18;;;;;;;19.63;3.40;;;5.20;99.90;;;;;;5057148;28;20206;-61
2022/01/30 08:58:45;;;;;;;15.87;3.27;;;5.20;99.90;;;;;;5060406;28;20248;-62
2022/01/30 09:01:13;;;;;;;25.53;3.27;;;5.30;99.90;;;;;;5056913;28;20247;-62
2022/01/30 09:03:40;;;;;;;18.53;3.30;;;5.40;99.90;;;;;;5052462;28;20303;-62
2022/01/30 09:06:07;;;;;;;11.43;2.97;;;5.50;99.90;;;;;;5052602;28;20247;-62
2022/01/30 09:08:34;;;;;;;7.97;2.00;;;5.50;99.90;;;;;;5052139;28;20208;-62
2022/01/30 09:11:00;;;;;;;14.37;3.10;;;5.40;99.90;;;;;;5051654;28;20201;-63
2022/01/30 09:13:28;;;;;;;22.60;3.70;;;5.40;99.90;;;;;;5052374;28;20266;-62
2022/01/30 09:15:57;;;;;;;19.30;3.97;;;5.50;99.90;;;;;;5051397;28;20212;-61
2022/01/30 09:18:25;;;;;;;19.63;3.97;;;5.50;99.90;;;;;;5052357;28;20293;-59
2022/01/30 09:20:52;;;;;;;16.93;3.13;;;5.50;99.90;;;;;;5051687;28;20249;-62
2022/01/30 09:23:19;;;;;;;16.70;3.27;;;5.50;99.90;;;;;;5052178;28;20217;-63
2022/01/30 09:25:46;;;;;;;15.60;3.20;;;5.60;99.90;;;;;;5052266;28;20213;-60
2022/01/30 09:28:14;;;;;;;16.47;4.00;;;5.50;99.90;;;;;;5051878;28;20209;-61
2022/01/30 09:30:42;;;;;;;19.80;3.83;;;5.50;99.90;;;;;;5052107;28;20204;-58
2022/01/30 09:33:09;;;;;;;21.00;3.80;;;5.60;99.90;;;;;;5052357;28;20225;-58
2022/01/30 09:35:35;;;;;;;21.07;3.70;;;5.50;99.90;;;;;;5051958;28;20216;-60
2022/01/30 09:38:02;;;;;;;18.40;3.63;;;5.60;99.90;;;;;;5052517;28;20206;-58
2022/01/30 09:40:29;;;;;;;14.93;2.33;;;5.70;40.20;;;;;;5052011;28;20312;-59
2022/01/30 09:42:58;;;;;;;14.83;3.47;;;5.70;66.50;;;;;;5052023;28;20643;-60
2022/01/30 09:45:25;;;;;;;12.60;2.90;;;5.60;53.90;;;;;;5051791;28;20730;-59
2022/01/30 09:47:53;;;;;;;22.43;4.47;;;5.60;1.00;;;;;;5052420;28;20206;-59
2022/01/30 09:50:22;;;;;;;21.93;4.23;;;5.60;44.10;;;;;;5051433;28;20277;-59
2022/01/30 09:52:49;;;;;;;24.43;4.37;;;5.70;61.30;;;;;;5052555;28;20234;-59
2022/01/30 09:55:16;;;;;;;19.10;4.07;;;5.90;99.90;;;;;;5053969;28;20210;-59
2022/01/30 09:57:44;;;;;;;18.67;3.90;;;6.10;1.00;;;;;;5058515;28;20213;-60
2022/01/30 10:00:12;;;;;;;20.63;3.67;;;6.10;1.00;;;;;;5054454;28;20257;-59
2022/01/30 10:02:41;;;;;;;22.63;3.97;;;6.10;99.90;;;;;;5051872;28;20225;-61
2022/01/30 10:05:12;;;;;;;17.97;3.37;;;6.00;99.90;;;;;;5056080;28;20209;-60
2022/01/30 10:07:44;;;;;;;26.37;3.83;;;6.00;99.90;;;;;;5060335;28;20622;-60
2022/01/30 10:10:13;;;;;;;23.20;3.93;;;5.80;99.90;;;;;;5058380;28;20231;-61
2022/01/30 10:13:02;;;;;;;22.90;3.50;;;5.70;99.90;;;;;;5052665;28;20233;-61
2022/01/30 10:15:29;;;;;;;21.80;3.27;;;5.70;99.90;;;;;;5051971;28;20568;-60
2022/01/30 10:17:56;;;;;;;15.17;3.43;;;5.90;99.90;;;;;;5051454;28;20212;-60
2022/01/30 10:20:26;;;;;;;14.43;3.20;;;6.20;99.90;;;;;;5051505;28;20233;-59
2022/01/30 10:22:54;;;;;;;15.87;3.57;;;6.30;1.00;;;;;;5051125;28;20234;-61
2022/01/30 10:25:23;;;;;;;22.13;4.53;;;6.40;1.00;;;;;;5051378;28;20745;-62
2022/01/30 10:27:50;;;;;;;21.87;3.43;;;6.50;1.00;;;;;;5051332;28;20591;-60
2022/01/30 10:30:22;;;;;;;20.97;3.90;;;6.60;99.90;;;;;;5051114;28;20586;-61
2022/01/30 10:32:56;;;;;;;20.00;4.03;;;6.80;99.90;;;;;;5050801;28;20645;-61
2022/01/30 10:35:26;;;;;;;20.47;3.80;;;6.80;1.00;;;;;;5051023;28;20324;-60
2022/01/30 10:37:53;;;;;;;26.33;3.03;;;6.80;99.90;;;;;;5050660;28;20300;-60
2022/01/30 10:40:28;;;;;;;27.37;5.23;;;6.70;1.00;;;;;;5050972;28;20691;-60
2022/01/30 10:42:55;;;;;;;14.80;3.30;;;6.50;74.80;;;;;;5051270;28;20228;-61
2022/01/30 10:45:28;;;;;;;13.47;3.43;;;6.40;99.90;;;;;;5050904;28;20209;-61
2022/01/30 10:48:09;;;;;;;34.63;7.53;;;6.30;1.00;;;;;;5051071;28;20218;-63
2022/01/30 10:50:38;;;;;;;24.23;4.13;;;6.40;1.00;;;;;;5050761;28;20209;-62
2022/01/30 10:53:05;;;;;;;16.63;4.00;;;6.50;25.40;;;;;;5050812;28;20230;-62
2022/01/30 10:55:35;;;;;;;19.20;3.90;;;6.60;75.20;;;;;;5050456;28;20216;-61
2022/01/30 10:58:03;;;;;;;22.07;3.80;;;6.70;99.90;;;;;;5050984;28;20213;-62
2022/01/30 11:00:41;;;;;;;14.87;2.90;;;6.80;99.90;;;;;;5050996;28;20232;-62
2022/01/30 11:03:09;;;;;;;23.30;4.83;;;6.80;1.00;;;;;;5054354;28;20586;-61
2022/01/30 11:05:57;;;;;;;22.50;4.53;;;6.80;99.90;;;;;;5055349;28;20210;-61
2022/01/30 11:08:24;;;;;;;28.20;3.77;;;6.80;1.00;;;;;;5054988;28;20210;-60
2022/01/30 11:11:00;;;;;;;20.30;3.83;;;7.00;99.90;;;;;;5054684;28;20205;-62
2022/01/30 11:13:32;;;;;;;17.57;3.80;;;6.90;1.00;;;;;;5054823;28;20568;-60
2022/01/30 11:16:55;;;;;;;23.07;4.07;;;6.90;99.90;;;;;;5054925;28;20209;-64
2022/01/30 11:18:51;;;;;;;20.70;4.07;;;7.00;1.00;;;;;;5054234;28;20206;-62
2022/01/30 11:21:22;;;;;;;21.57;4.63;;;7.20;99.90;;;;;;5054505;28;20587;-60
2022/01/30 11:23:51;;;;;;;16.37;3.97;;;7.30;1.00;;;;;;5054669;28;20292;-63
2022/01/30 11:26:19;;;;;;;19.57;4.60;;;7.30;99.90;;;;;;5054470;28;20205;-61
2022/01/30 11:28:46;;;;;;;18.43;3.63;;;7.30;99.90;;;;;;5054462;28;20586;-63
2022/01/30 11:31:16;;;;;;;21.53;4.07;;;7.40;1.00;;;;;;5054158;28;20775;-63
2022/01/30 11:33:44;;;;;;;23.03;4.40;;;7.40;1.00;;;;;;5054258;28;20302;-63
2022/01/30 11:36:12;;;;;;;16.90;3.43;;;7.40;99.90;;;;;;5054605;28;20210;-63
2022/01/30 11:38:41;;;;;;;21.13;4.60;;;7.20;46.30;;;;;;5053741;28;20206;-63
2022/01/30 11:41:16;;;;;;;27.60;4.20;;;7.20;99.90;;;;;;5053654;28;20237;-62
2022/01/30 11:44:21;;;;;;;15.17;3.03;;;7.30;1.00;;;;;;5053958;28;20216;-62
2022/01/30 11:47:20;;;;;;;22.53;4.70;;;7.40;54.60;;;;;;5053547;28;20237;-62
2022/01/30 11:50:04;;;;;;;20.97;3.40;;;7.30;8.50;;;;;;5054539;28;20212;-61
2022/01/30 11:52:52;;;;;;;27.50;4.97;;;7.20;1.00;;;;;;5053861;28;20287;-62
2022/01/30 11:55:49;;;;;;;18.87;3.97;;;7.10;99.90;;;;;;5055000;28;20206;-61
2022/01/30 11:58:40;;;;;;;24.83;4.47;;;7.20;1.00;;;;;;5054572;28;20205;-61
2022/01/30 12:01:14;;;;;;;19.93;3.30;;;7.30;1.00;;;;;;5054002;28;20230;-61
2022/01/30 12:03:53;;;;;;;29.07;4.73;;;7.00;1.00;;;;;;5053961;28;20246;-62
2022/01/30 12:06:34;;;;;;;10.27;3.17;;;7.00;99.90;;;;;;5054114;28;20205;-66
2022/01/30 12:09:03;;;;;;;24.40;4.47;;;7.00;99.90;;;;;;5053776;28;20208;-62
2022/01/30 12:11:55;;;;;;;23.40;4.73;;;7.00;99.90;;;;;;5053985;28;20313;-62
2022/01/30 12:14:56;;;;;;;30.23;5.57;;;7.00;99.90;;;;;;5053273;28;20263;-63
2022/01/30 12:17:49;;;;;;;25.73;5.13;;;7.10;1.00;;;;;;5053545;28;20303;-63
2022/01/30 12:20:19;;;;;;;22.23;4.40;;;7.20;99.90;;;;;;5050523;28;20707;-65
2022/01/30 12:22:46;;;;;;;29.17;5.10;;;7.10;99.90;;;;;;5053516;28;20242;-66
2022/01/30 12:25:35;;;;;;;23.00;3.90;;;7.10;99.90;;;;;;5054071;28;20210;-66
2022/01/30 12:28:07;;;;;;;33.03;5.60;;;7.10;99.90;;;;;;5054071;28;20221;-69
2022/01/30 12:30:37;;;;;;;17.43;4.73;;;7.10;99.90;;;;;;5054561;28;20613;-66
2022/01/30 12:33:19;;;;;;;30.23;4.43;;;7.10;99.90;;;;;;5054265;28;20612;-66
2022/01/30 12:35:48;;;;;;;27.93;4.30;;;7.10;99.90;;;;;;5054575;28;20256;-65
2022/01/30 12:38:15;;;;;;;17.97;4.40;;;7.10;99.80;;;;;;5054919;28;20680;-67
2022/01/30 12:40:45;;;;;;;20.30;3.70;;;7.10;15.20;;;;;;5053346;28;20229;-71
2022/01/30 12:43:12;;;;;;;22.47;4.60;;;7.10;99.90;;;;;;5053277;28;20234;-71
2022/01/30 12:45:39;;;;;;;20.23;4.93;;;7.20;99.90;;;;;;5053582;28;20210;-71
2022/01/30 12:48:09;;;;;;;14.70;3.57;;;7.20;99.90;;;;;;5053519;28;20268;-70
2022/01/30 12:50:38;;;;;;;13.03;3.30;;;7.40;99.90;;;;;;5053476;28;20192;-70
2022/01/30 12:53:07;;;;;;;18.80;4.17;;;7.40;99.90;;;;;;5053214;28;20252;-69
2022/01/30 12:55:34;;;;;;;20.87;4.40;;;7.20;99.90;;;;;;5053383;28;20210;-68
2022/01/30 12:58:01;;;;;;;20.67;3.83;;;7.10;99.90;;;;;;5052727;28;20217;-70
2022/01/30 13:00:28;;;;;;;18.40;4.47;;;7.10;1.00;;;;;;5052808;28;20206;-71
2022/01/30 13:02:56;;;;;;;19.97;4.57;;;7.10;1.00;;;;;;5052538;28;20233;-67
2022/01/30 13:05:24;;;;;;;31.00;4.03;;;7.20;1.00;;;;;;5052705;28;20297;-67
2022/01/30 13:07:55;;;;;;;22.83;4.17;;;7.20;99.90;;;;;;5052725;28;20301;-64
2022/01/30 13:10:24;;;;;;;17.50;4.17;;;7.30;99.90;;;;;;5052957;28;20630;-61
2022/01/30 13:12:52;;;;;;;15.83;3.70;;;7.40;99.90;;;;;;5052404;28;20315;-63
2022/01/30 13:15:22;;;;;;;21.80;3.30;;;7.60;99.90;;;;;;5052766;28;20696;-61
2022/01/30 13:17:49;;;;;;;17.53;4.23;;;7.60;99.90;;;;;;5056387;28;20205;-64
2022/01/30 13:20:22;;;;;;;21.97;4.13;;;7.50;1.00;;;;;;5061160;28;20209;-64
2022/01/30 13:22:52;;;;;;;26.07;5.10;;;7.40;99.90;;;;;;5053534;28;20218;-61
2022/01/30 13:25:20;;;;;;;24.83;4.87;;;7.30;99.90;;;;;;5051624;28;20628;-60
2022/01/30 13:27:50;;;;;;;22.23;4.37;;;7.20;99.90;;;;;;5054032;28;20582;-64
2022/01/30 13:30:20;;;;;;;17.63;3.33;;;7.10;1.00;;;;;;5062278;28;20209;-64
2022/01/30 13:32:47;;;;;;;18.63;4.10;;;7.20;99.90;;;;;;5061677;28;20223;-64
2022/01/30 13:35:15;;;;;;;24.13;4.40;;;7.20;99.90;;;;;;5053072;28;20279;-64